Time;durP1;ratioP1;P1;durP2;ratioP2;P2;SDS_P1;SDS_P2;PMS_P1;PMS_P2;Temp;Humidity;BMP_temperature;BMP_pressure;BME280_temperature;BME280_humidity;BME280_pressure;Samples;Min_cycle;Max_cycle;Signal;HPM_P1;HPM_P2
2022/09/15 00:01:59;;;;;;;5.40;2.70;;;;;;;;;;4995742;28;20045;-78
2022/09/15 00:04:25;;;;;;;6.70;2.88;;;;;;;;;;4998131;28;20038;-78
2022/09/15 00:06:51;;;;;;;8.63;5.40;;;;;;;;;;4997574;28;20044;-78
2022/09/15 00:09:18;;;;;;;9.10;5.55;;;;;;;;;;4983753;28;20364;-77
2022/09/15 00:11:44;;;;;;;5.30;3.10;;;;;;;;;;4992305;28;20049;-78
2022/09/15 00:14:10;;;;;;;3.70;0.90;;;;;;;;;;4994646;28;20034;-78
2022/09/15 00:16:36;;;;;;;6.15;0.68;;;;;;;;;;4994714;28;20030;-77
2022/09/15 00:19:03;;;;;;;8.70;0.75;;;;;;;;;;4997998;28;20026;-77
2022/09/15 00:21:30;;;;;;;5.50;0.80;;;;;;;;;;4997449;28;20586;-78
2022/09/15 00:23:57;;;;;;;3.13;0.80;;;;;;;;;;4993368;28;20383;-78
2022/09/15 00:26:24;;;;;;;4.13;0.82;;;;;;;;;;4996265;28;20130;-78
2022/09/15 00:28:51;;;;;;;4.53;1.23;;;;;;;;;;4995396;28;20117;-77
2022/09/15 00:31:18;;;;;;;5.30;0.98;;;;;;;;;;5000266;28;20085;-78
2022/09/15 00:33:48;;;;;;;5.95;0.98;;;;;;;;;;4994736;28;20030;-78
2022/09/15 00:36:14;;;;;;;3.17;0.95;;;;;;;;;;4993075;28;20066;-78
2022/09/15 00:38:41;;;;;;;3.88;0.60;;;;;;;;;;4996455;28;20297;-77
2022/09/15 00:41:08;;;;;;;6.88;1.10;;;;;;;;;;4993437;28;20032;-78
2022/09/15 00:43:46;;;;;;;5.20;0.93;;;;;;;;;;4994399;28;20041;-78
2022/09/15 00:46:12;;;;;;;2.58;0.68;;;;;;;;;;4993271;28;20077;-78
2022/09/15 00:48:41;;;;;;;3.63;0.63;;;;;;;;;;4995897;28;20058;-78
2022/09/15 00:51:08;;;;;;;3.03;0.70;;;;;;;;;;4997016;28;20037;-78
2022/09/15 00:53:34;;;;;;;3.72;0.90;;;;;;;;;;4997912;28;20029;-78
2022/09/15 00:56:02;;;;;;;2.88;0.80;;;;;;;;;;4993665;28;20133;-78
2022/09/15 00:58:37;;;;;;;2.70;0.70;;;;;;;;;;4995426;28;20509;-78
2022/09/15 01:01:04;;;;;;;3.33;0.80;;;;;;;;;;4997995;28;20029;-77
2022/09/15 01:03:32;;;;;;;2.08;0.80;;;;;;;;;;4993259;28;20197;-78
2022/09/15 01:06:01;;;;;;;6.38;0.90;;;;;;;;;;4991431;28;20049;-78
2022/09/15 01:08:31;;;;;;;4.45;1.00;;;;;;;;;;4991927;28;20038;-78
2022/09/15 01:10:57;;;;;;;2.58;1.00;;;;;;;;;;4992882;28;20052;-77
2022/09/15 01:13:24;;;;;;;5.78;1.17;;;;;;;;;;4998142;28;20510;-78
2022/09/15 01:16:09;;;;;;;3.25;0.70;;;;;;;;;;4993761;28;20080;-78
2022/09/15 01:18:50;;;;;;;4.80;1.17;;;;;;;;;;4994733;28;20524;-78
2022/09/15 01:21:16;;;;;;;4.28;0.88;;;;;;;;;;4994417;28;20074;-78
2022/09/15 01:23:43;;;;;;;6.82;1.00;;;;;;;;;;4998440;28;20122;-78
2022/09/15 01:26:32;;;;;;;4.97;0.85;;;;;;;;;;4998075;28;20096;-78
2022/09/15 01:29:04;;;;;;;4.22;1.10;;;;;;;;;;4955197;28;20052;-78
2022/09/15 01:31:30;;;;;;;;;;;;;;;;;;4991703;28;20045;-78
2022/09/15 01:33:56;;;;;;;3.90;0.80;;;;;;;;;;4994932;28;19920;-78
2022/09/15 01:36:30;;;;;;;2.97;0.75;;;;;;;;;;4993988;28;20510;-77
2022/09/15 01:39:02;;;;;;;4.55;1.00;;;;;;;;;;4996229;28;20033;-78
2022/09/15 01:41:37;;;;;;;4.20;1.08;;;;;;;;;;4995830;28;20467;-78
2022/09/15 01:44:06;;;;;;;4.80;1.00;;;;;;;;;;4999212;28;20129;-78
2022/09/15 01:46:34;;;;;;;5.13;1.38;;;;;;;;;;5006814;28;20049;-78
2022/09/15 01:49:01;;;;;;;4.70;0.90;;;;;;;;;;5000665;28;20080;-78
2022/09/15 01:51:28;;;;;;;2.60;0.63;;;;;;;;;;4997687;28;20801;-78
2022/09/15 01:53:55;;;;;;;2.80;0.90;;;;;;;;;;4999471;28;20030;-78
2022/09/15 01:56:21;;;;;;;4.20;0.77;;;;;;;;;;5005816;28;20036;-78
2022/09/15 01:58:48;;;;;;;1.65;0.68;;;;;;;;;;4998473;28;20129;-78
2022/09/15 02:01:28;;;;;;;3.90;0.85;;;;;;;;;;5001469;28;20088;-78
2022/09/15 02:03:57;;;;;;;3.50;0.90;;;;;;;;;;4998347;28;20040;-78
2022/09/15 02:06:45;;;;;;;3.60;0.80;;;;;;;;;;5000872;28;20040;-78
2022/09/15 02:09:13;;;;;;;2.33;0.90;;;;;;;;;;5002566;28;20042;-77
2022/09/15 02:11:44;;;;;;;4.82;0.60;;;;;;;;;;5005214;28;20466;-78
2022/09/15 02:14:10;;;;;;;5.00;0.77;;;;;;;;;;4996128;28;20729;-78
2022/09/15 02:16:38;;;;;;;3.90;0.63;;;;;;;;;;5004129;28;20041;-78
2022/09/15 02:19:13;;;;;;;4.05;0.80;;;;;;;;;;5001240;28;20371;-78
2022/09/15 02:21:46;;;;;;;2.53;0.80;;;;;;;;;;5005992;28;20121;-78
2022/09/15 02:24:13;;;;;;;4.45;0.93;;;;;;;;;;4988826;28;20030;-77
2022/09/15 02:26:40;;;;;;;4.10;0.85;;;;;;;;;;4995852;28;20034;-78
2022/09/15 02:29:07;;;;;;;2.10;0.60;;;;;;;;;;4997721;28;20027;-78
2022/09/15 02:31:34;;;;;;;3.53;0.73;;;;;;;;;;5002782;28;20033;-78
2022/09/15 02:34:02;;;;;;;4.03;0.70;;;;;;;;;;5003336;28;20030;-78
2022/09/15 02:36:29;;;;;;;3.75;0.82;;;;;;;;;;5006566;28;20042;-78
2022/09/15 02:38:57;;;;;;;3.47;0.70;;;;;;;;;;5007823;28;20036;-78
2022/09/15 02:41:23;;;;;;;2.88;0.65;;;;;;;;;;5003116;28;20730;-78
2022/09/15 02:43:50;;;;;;;2.85;0.70;;;;;;;;;;5008776;28;20030;-78
2022/09/15 02:46:16;;;;;;;3.70;0.70;;;;;;;;;;4997947;28;20066;-78
2022/09/15 02:48:42;;;;;;;4.72;0.88;;;;;;;;;;5008918;28;20533;-78
2022/09/15 02:51:08;;;;;;;3.28;0.95;;;;;;;;;;4998682;28;20141;-78
2022/09/15 02:53:35;;;;;;;5.85;1.02;;;;;;;;;;5006972;28;20384;-78
2022/09/15 02:56:02;;;;;;;4.75;1.00;;;;;;;;;;5004631;28;20081;-78
2022/09/15 02:58:28;;;;;;;3.53;0.80;;;;;;;;;;4996501;28;20042;-78
2022/09/15 03:00:55;;;;;;;3.55;0.70;;;;;;;;;;5004455;28;20046;-78
2022/09/15 03:03:21;;;;;;;6.15;1.25;;;;;;;;;;5002631;28;20034;-78
2022/09/15 03:05:47;;;;;;;7.00;1.10;;;;;;;;;;5021033;23;20537;-78
2022/09/15 03:08:13;;;;;;;3.20;1.00;;;;;;;;;;5005700;28;20037;-78
2022/09/15 03:10:39;;;;;;;10.75;0.90;;;;;;;;;;5004921;28;20135;-78
2022/09/15 03:13:06;;;;;;;2.80;0.75;;;;;;;;;;4999416;28;20086;-78
2022/09/15 03:15:32;;;;;;;5.40;0.80;;;;;;;;;;5010971;28;20030;-78
2022/09/15 03:18:01;;;;;;;4.00;1.20;;;;;;;;;;5003982;28;20054;-78
2022/09/15 03:20:27;;;;;;;6.30;1.05;;;;;;;;;;5001551;28;20026;-78
2022/09/15 03:22:54;;;;;;;5.55;1.20;;;;;;;;;;5001962;28;20053;-78
2022/09/15 03:25:20;;;;;;;4.10;1.20;;;;;;;;;;5004197;28;20033;-78
2022/09/15 03:27:47;;;;;;;2.38;0.70;;;;;;;;;;5004286;28;20080;-78
2022/09/15 03:30:13;;;;;;;5.07;1.13;;;;;;;;;;5009538;28;20038;-78
2022/09/15 03:32:39;;;;;;;4.90;1.25;;;;;;;;;;5011074;28;20057;-78
2022/09/15 03:35:06;;;;;;;4.68;0.82;;;;;;;;;;5006272;28;20080;-78
2022/09/15 03:37:32;;;;;;;6.53;0.88;;;;;;;;;;5000758;28;20030;-78
2022/09/15 03:39:58;;;;;;;8.27;1.08;;;;;;;;;;5010901;28;20042;-78
2022/09/15 03:42:24;;;;;;;6.28;1.00;;;;;;;;;;5010632;28;20563;-78
2022/09/15 03:44:50;;;;;;;4.78;1.00;;;;;;;;;;5009599;28;20396;-78
2022/09/15 03:47:16;;;;;;;4.90;0.90;;;;;;;;;;5007836;28;20030;-78
2022/09/15 03:49:42;;;;;;;5.07;0.80;;;;;;;;;;5007092;28;20038;-78
2022/09/15 03:52:08;;;;;;;2.65;0.90;;;;;;;;;;4993086;28;20578;-78
2022/09/15 03:54:34;;;;;;;8.63;0.95;;;;;;;;;;5000885;28;20112;-78
2022/09/15 03:57:01;;;;;;;9.82;1.45;;;;;;;;;;5005578;28;20036;-78
2022/09/15 03:59:27;;;;;;;6.18;1.10;;;;;;;;;;5009085;28;20044;-78
2022/09/15 04:01:52;;;;;;;4.25;1.00;;;;;;;;;;5010081;28;20026;-78
2022/09/15 04:04:18;;;;;;;2.40;0.68;;;;;;;;;;4995374;28;20038;-78
2022/09/15 04:06:45;;;;;;;6.20;0.93;;;;;;;;;;5009942;28;20046;-78
2022/09/15 04:09:11;;;;;;;2.70;0.75;;;;;;;;;;5009498;28;20053;-78
2022/09/15 04:11:38;;;;;;;10.05;1.33;;;;;;;;;;5009854;28;20566;-78
2022/09/15 04:14:04;;;;;;;3.20;0.90;;;;;;;;;;5010184;28;20130;-77
2022/09/15 04:16:30;;;;;;;6.10;1.10;;;;;;;;;;5008896;28;20034;-78
2022/09/15 04:18:56;;;;;;;6.60;0.88;;;;;;;;;;5008574;28;20045;-78
2022/09/15 04:21:24;;;;;;;5.18;1.25;;;;;;;;;;5003102;28;20038;-78
2022/09/15 04:23:50;;;;;;;3.92;1.00;;;;;;;;;;5010188;28;20049;-78
2022/09/15 04:26:22;;;;;;;9.25;1.35;;;;;;;;;;5009470;28;20528;-78
2022/09/15 04:28:48;;;;;;;5.32;1.70;;;;;;;;;;5002050;28;20046;-78
2022/09/15 04:31:15;;;;;;;5.32;1.27;;;;;;;;;;4999454;28;20025;-78
2022/09/15 04:33:42;;;;;;;6.50;1.65;;;;;;;;;;5005586;28;20049;-78
2022/09/15 04:36:19;;;;;;;6.05;1.45;;;;;;;;;;5009301;28;20041;-78
2022/09/15 04:38:46;;;;;;;4.88;1.15;;;;;;;;;;5007036;28;20030;-78
2022/09/15 04:41:13;;;;;;;6.85;1.20;;;;;;;;;;5006016;28;20045;-78
2022/09/15 04:43:39;;;;;;;6.10;1.35;;;;;;;;;;5002522;28;20632;-78
2022/09/15 04:46:06;;;;;;;6.68;1.25;;;;;;;;;;5006521;28;20041;-78
2022/09/15 04:48:32;;;;;;;5.00;1.48;;;;;;;;;;5005916;28;20041;-78
2022/09/15 04:51:02;;;;;;;8.55;2.03;;;;;;;;;;5006218;28;20025;-78
2022/09/15 04:53:28;;;;;;;9.40;1.13;;;;;;;;;;4998191;28;20090;-78
2022/09/15 04:56:01;;;;;;;5.22;1.48;;;;;;;;;;4995404;28;20076;-77
2022/09/15 04:58:27;;;;;;;7.90;1.30;;;;;;;;;;4996590;28;20109;-78
2022/09/15 05:00:53;;;;;;;6.40;1.25;;;;;;;;;;5006026;28;20154;-78
2022/09/15 05:03:19;;;;;;;7.38;1.10;;;;;;;;;;5008477;28;20494;-78
2022/09/15 05:05:47;;;;;;;6.15;1.85;;;;;;;;;;5002148;28;20041;-78
2022/09/15 05:08:13;;;;;;;4.45;1.40;;;;;;;;;;5005410;28;20060;-78
2022/09/15 05:10:39;;;;;;;5.88;1.40;;;;;;;;;;5006078;28;20044;-77
2022/09/15 05:13:05;;;;;;;7.82;1.48;;;;;;;;;;5004041;28;20034;-78
2022/09/15 05:15:31;;;;;;;7.63;1.50;;;;;;;;;;5004977;28;20462;-78
2022/09/15 05:17:57;;;;;;;4.85;1.33;;;;;;;;;;5002195;28;20034;-77
2022/09/15 05:20:23;;;;;;;5.35;1.23;;;;;;;;;;5000967;28;20030;-78
2022/09/15 05:22:49;;;;;;;4.88;1.27;;;;;;;;;;5004454;28;20034;-78
2022/09/15 05:25:15;;;;;;;5.03;1.48;;;;;;;;;;5008172;28;20036;-77
2022/09/15 05:27:41;;;;;;;7.80;1.80;;;;;;;;;;5004965;28;20153;-78
2022/09/15 05:30:08;;;;;;;8.98;1.60;;;;;;;;;;5000686;28;20555;-78
2022/09/15 05:32:34;;;;;;;5.68;1.30;;;;;;;;;;5006305;28;20042;-77
2022/09/15 05:35:00;;;;;;;5.07;1.25;;;;;;;;;;5001946;28;20030;-78
2022/09/15 05:37:26;;;;;;;6.18;1.50;;;;;;;;;;5004149;28;20487;-77
2022/09/15 05:39:52;;;;;;;4.35;1.63;;;;;;;;;;5002243;28;20045;-78
2022/09/15 05:42:18;;;;;;;9.93;1.48;;;;;;;;;;5003816;28;20487;-78
2022/09/15 05:44:44;;;;;;;7.40;1.30;;;;;;;;;;5003098;28;20077;-78
2022/09/15 05:47:10;;;;;;;7.18;1.75;;;;;;;;;;5007995;28;20038;-78
2022/09/15 05:49:36;;;;;;;7.95;2.17;;;;;;;;;;4991098;28;20081;-77
2022/09/15 05:52:03;;;;;;;10.25;2.17;;;;;;;;;;4999905;28;20057;-77
2022/09/15 05:54:29;;;;;;;10.48;1.80;;;;;;;;;;5004849;28;20026;-78
2022/09/15 05:56:55;;;;;;;9.27;2.00;;;;;;;;;;5001685;28;20059;-78
2022/09/15 05:59:21;;;;;;;9.43;2.50;;;;;;;;;;5001159;28;20038;-78
2022/09/15 06:01:47;;;;;;;8.52;1.92;;;;;;;;;;5005534;28;20117;-78
2022/09/15 06:04:13;;;;;;;7.57;1.85;;;;;;;;;;5007285;28;20117;-78
2022/09/15 06:06:39;;;;;;;9.15;2.35;;;;;;;;;;4993294;28;20650;-78
2022/09/15 06:09:05;;;;;;;11.45;1.90;;;;;;;;;;5004655;28;20044;-78
2022/09/15 06:11:34;;;;;;;7.40;2.05;;;;;;;;;;5007127;28;20042;-78
2022/09/15 06:14:01;;;;;;;6.65;1.70;;;;;;;;;;4999578;28;20064;-78
2022/09/15 06:16:31;;;;;;;5.05;1.45;;;;;;;;;;5008041;28;20060;-77
2022/09/15 06:18:58;;;;;;;12.02;2.55;;;;;;;;;;5005448;28;20034;-78
2022/09/15 06:21:25;;;;;;;13.77;2.08;;;;;;;;;;5004775;28;20114;-78
2022/09/15 06:23:55;;;;;;;6.57;1.85;;;;;;;;;;5006600;28;20088;-78
2022/09/15 06:26:21;;;;;;;10.60;2.38;;;;;;;;;;5003702;28;20073;-78
2022/09/15 06:28:48;;;;;;;6.45;2.00;;;;;;;;;;5003821;28;20065;-78
2022/09/15 06:31:15;;;;;;;9.75;2.28;;;;;;;;;;5007616;28;20030;-78
2022/09/15 06:33:42;;;;;;;8.10;2.72;;;;;;;;;;5005468;28;20042;-78
2022/09/15 06:36:10;;;;;;;12.82;2.58;;;;;;;;;;5005620;28;20221;-78
2022/09/15 06:38:37;;;;;;;10.98;3.33;;;;;;;;;;5005410;28;20049;-78
2022/09/15 06:41:03;;;;;;;8.68;2.88;;;;;;;;;;5001736;28;20624;-78
2022/09/15 06:43:30;;;;;;;14.25;3.10;;;;;;;;;;5005320;28;20034;-78
2022/09/15 06:46:01;;;;;;;8.35;2.53;;;;;;;;;;5006077;28;20080;-78
2022/09/15 06:48:27;;;;;;;9.00;2.63;;;;;;;;;;5006251;28;20124;-78
2022/09/15 06:50:54;;;;;;;6.72;2.70;;;;;;;;;;5003320;28;20121;-77
2022/09/15 06:53:20;;;;;;;9.25;2.58;;;;;;;;;;5002681;28;20045;-78
2022/09/15 06:55:46;;;;;;;12.40;3.05;;;;;;;;;;5004698;28;20620;-78
2022/09/15 06:58:12;;;;;;;7.85;2.92;;;;;;;;;;5005240;28;20070;-78
2022/09/15 07:00:38;;;;;;;8.93;2.97;;;;;;;;;;5001480;28;20030;-78
2022/09/15 07:03:04;;;;;;;11.57;3.25;;;;;;;;;;5002322;28;20084;-78
2022/09/15 07:05:30;;;;;;;8.18;3.03;;;;;;;;;;5001409;28;20637;-78
2022/09/15 07:07:56;;;;;;;7.70;2.58;;;;;;;;;;4986159;28;20054;-78
2022/09/15 07:10:22;;;;;;;8.13;2.28;;;;;;;;;;4980651;28;20060;-78
2022/09/15 07:12:50;;;;;;;7.60;2.60;;;;;;;;;;4985846;28;20026;-78
2022/09/15 07:15:16;;;;;;;10.75;2.58;;;;;;;;;;4971227;28;20038;-78
2022/09/15 07:17:42;;;;;;;12.35;2.70;;;;;;;;;;4960643;28;20042;-78
2022/09/15 07:20:08;;;;;;;9.23;2.08;;;;;;;;;;4957031;28;20533;-78
2022/09/15 07:22:34;;;;;;;7.88;1.73;;;;;;;;;;4956040;28;20038;-78
2022/09/15 07:25:00;;;;;;;6.20;1.88;;;;;;;;;;4970884;28;20432;-78
2022/09/15 07:27:30;;;;;;;10.27;2.38;;;;;;;;;;4959811;28;20038;-78
2022/09/15 07:29:56;;;;;;;9.43;2.50;;;;;;;;;;4967076;28;20039;-78
2022/09/15 07:32:23;;;;;;;6.82;2.50;;;;;;;;;;4965417;28;20034;-78
2022/09/15 07:34:50;;;;;;;11.05;3.15;;;;;;;;;;4955942;28;20039;-78
2022/09/15 07:37:16;;;;;;;7.07;1.83;;;;;;;;;;4960640;28;20023;-78
2022/09/15 07:39:42;;;;;;;9.18;2.50;;;;;;;;;;4960150;28;20050;-78
2022/09/15 07:42:08;;;;;;;7.30;2.03;;;;;;;;;;4963974;28;20034;-78
2022/09/15 07:44:34;;;;;;;9.05;2.08;;;;;;;;;;4967100;28;20034;-78
2022/09/15 07:47:00;;;;;;;10.93;2.50;;;;;;;;;;4965691;28;20026;-78
2022/09/15 07:49:26;;;;;;;7.63;2.50;;;;;;;;;;4967047;28;20150;-78
2022/09/15 07:51:52;;;;;;;7.75;3.13;;;;;;;;;;4967841;28;20041;-77
2022/09/15 07:54:18;;;;;;;9.95;3.00;;;;;;;;;;4964746;28;20034;-78
2022/09/15 07:56:44;;;;;;;7.65;2.53;;;;;;;;;;4965957;28;20089;-78
2022/09/15 07:59:10;;;;;;;8.60;2.13;;;;;;;;;;4971222;28;20400;-78
2022/09/15 08:01:36;;;;;;;8.75;2.00;;;;;;;;;;4965026;28;20035;-78
2022/09/15 08:04:02;;;;;;;9.60;2.25;;;;;;;;;;4958768;28;20035;-77
2022/09/15 08:06:28;;;;;;;9.45;1.95;;;;;;;;;;4969889;28;20045;-78
2022/09/15 08:08:55;;;;;;;8.63;2.13;;;;;;;;;;4981995;28;20050;-78
2022/09/15 08:11:21;;;;;;;9.90;2.25;;;;;;;;;;4981622;28;20026;-78
2022/09/15 08:13:48;;;;;;;7.57;2.08;;;;;;;;;;4986320;28;20096;-77
2022/09/15 08:16:15;;;;;;;7.22;1.30;;;;;;;;;;4987536;28;20022;-77
2022/09/15 08:18:42;;;;;;;7.55;1.25;;;;;;;;;;4988222;28;20041;-78
2022/09/15 08:21:09;;;;;;;5.45;1.65;;;;;;;;;;4986887;28;20026;-78
2022/09/15 08:23:36;;;;;;;5.70;1.20;;;;;;;;;;4984952;28;20045;-78
2022/09/15 08:26:04;;;;;;;3.83;0.85;;;;;;;;;;4988325;28;20038;-77
2022/09/15 08:28:30;;;;;;;6.45;0.95;;;;;;;;;;4980033;28;20916;-78
2022/09/15 08:31:00;;;;;;;14.73;1.10;;;;;;;;;;4978432;28;20030;-77
2022/09/15 08:33:27;;;;;;;4.95;1.33;;;;;;;;;;4982816;28;20038;-78
2022/09/15 08:35:53;;;;;;;3.67;1.35;;;;;;;;;;4984917;28;20042;-78
2022/09/15 08:38:20;;;;;;;9.23;2.03;;;;;;;;;;4985071;28;20483;-77
2022/09/15 08:40:46;;;;;;;6.63;1.55;;;;;;;;;;4982008;28;20555;-77
2022/09/15 08:43:15;;;;;;;5.72;1.85;;;;;;;;;;4983574;28;20483;-78
2022/09/15 08:45:52;;;;;;;7.45;2.05;;;;;;;;;;4981932;28;20114;-78
2022/09/15 08:48:20;;;;;;;7.32;2.00;;;;;;;;;;4977128;28;20042;-78
2022/09/15 08:50:48;;;;;;;10.80;2.20;;;;;;;;;;4978479;28;20538;-78
2022/09/15 08:53:14;;;;;;;8.75;2.47;;;;;;;;;;4984978;28;20046;-78
2022/09/15 08:55:40;;;;;;;10.10;1.75;;;;;;;;;;4980917;28;20023;-77
2022/09/15 08:58:12;;;;;;;7.95;1.80;;;;;;;;;;4983732;28;20069;-78
2022/09/15 09:00:39;;;;;;;9.60;1.80;;;;;;;;;;4980749;28;20045;-78
2022/09/15 09:03:05;;;;;;;5.72;2.00;;;;;;;;;;4986361;28;20038;-78
2022/09/15 09:05:40;;;;;;;8.82;2.00;;;;;;;;;;4988489;28;20034;-77
2022/09/15 09:08:12;;;;;;;10.05;2.03;;;;;;;;;;4984524;28;20034;-78
2022/09/15 09:10:45;;;;;;;9.85;1.42;;;;;;;;;;4974713;28;20026;-78
2022/09/15 09:13:19;;;;;;;5.90;1.13;;;;;;;;;;4982463;28;20845;-77
2022/09/15 09:15:45;;;;;;;8.20;1.75;;;;;;;;;;4988115;28;20062;-77
2022/09/15 09:18:30;;;;;;;5.43;1.00;;;;;;;;;;4981582;28;20042;-77
2022/09/15 09:21:05;;;;;;;2.30;0.80;;;;;;;;;;4979836;28;20543;-77
2022/09/15 09:23:32;;;;;;;6.25;0.98;;;;;;;;;;4978424;28;20039;-78
2022/09/15 09:26:00;;;;;;;5.43;1.17;;;;;;;;;;4984293;28;20150;-77
2022/09/15 09:28:39;;;;;;;3.13;0.80;;;;;;;;;;4981105;28;20039;-77
2022/09/15 09:31:07;;;;;;;3.75;0.80;;;;;;;;;;4979103;28;20384;-77
2022/09/15 09:33:38;;;;;;;7.95;0.80;;;;;;;;;;4982849;28;20376;-78
2022/09/15 09:36:05;;;;;;;8.80;1.00;;;;;;;;;;4985225;28;20700;-78
2022/09/15 09:38:32;;;;;;;4.30;0.93;;;;;;;;;;4986025;28;20030;-78
2022/09/15 09:40:58;;;;;;;4.57;1.10;;;;;;;;;;4980668;28;20169;-77
2022/09/15 09:43:26;;;;;;;2.55;0.77;;;;;;;;;;4985112;28;20035;-78
2022/09/15 09:45:52;;;;;;;4.65;1.00;;;;;;;;;;4980851;28;20141;-77
2022/09/15 09:48:19;;;;;;;12.82;1.52;;;;;;;;;;4983213;28;20141;-77
2022/09/15 09:50:46;;;;;;;6.97;1.30;;;;;;;;;;4981689;28;20041;-78
2022/09/15 09:53:41;;;;;;;6.40;1.73;;;;;;;;;;4981498;28;20039;-78
2022/09/15 09:56:24;;;;;;;7.03;1.33;;;;;;;;;;4971617;28;20038;-78
2022/09/15 09:58:50;;;;;;;8.02;1.50;;;;;;;;;;4973743;28;20039;-77
2022/09/15 10:01:18;;;;;;;5.53;1.30;;;;;;;;;;4982131;28;20035;-78
2022/09/15 10:03:44;;;;;;;7.25;1.48;;;;;;;;;;4982801;28;20033;-78
2022/09/15 10:06:15;;;;;;;5.43;1.55;;;;;;;;;;4979209;28;20051;-78
2022/09/15 10:08:53;;;;;;;6.40;1.53;;;;;;;;;;4976304;28;20110;-78
2022/09/15 10:11:19;;;;;;;9.10;1.95;;;;;;;;;;4978104;28;20031;-78
2022/09/15 10:13:52;;;;;;;5.03;2.00;;;;;;;;;;4982616;28;20487;-77
2022/09/15 10:16:18;;;;;;;6.47;2.25;;;;;;;;;;4983945;28;20054;-78
2022/09/15 10:18:45;;;;;;;9.30;2.83;;;;;;;;;;4983424;28;20080;-77
2022/09/15 10:21:13;;;;;;;6.03;1.67;;;;;;;;;;4981890;28;20034;-78
2022/09/15 10:23:39;;;;;;;6.38;1.65;;;;;;;;;;4979199;28;20038;-78
2022/09/15 10:26:17;;;;;;;5.05;1.83;;;;;;;;;;4978618;28;20065;-77
2022/09/15 10:28:44;;;;;;;6.85;2.20;;;;;;;;;;4983881;28;20866;-78
2022/09/15 10:31:25;;;;;;;6.57;1.30;;;;;;;;;;4981324;28;20039;-77
2022/09/15 10:33:51;;;;;;;5.85;1.40;;;;;;;;;;4977965;28;20042;-78
2022/09/15 10:36:19;;;;;;;6.63;1.10;;;;;;;;;;4980672;28;20027;-77
2022/09/15 10:38:47;;;;;;;8.30;1.23;;;;;;;;;;4982973;28;20629;-78
2022/09/15 10:41:18;;;;;;;4.97;1.33;;;;;;;;;;4978378;28;20495;-78
2022/09/15 10:43:47;;;;;;;5.88;1.40;;;;;;;;;;4983570;28;20034;-78
2022/09/15 10:46:27;;;;;;;4.43;1.17;;;;;;;;;;4981515;28;20472;-78
2022/09/15 10:49:03;;;;;;;6.57;1.52;;;;;;;;;;4979177;28;20042;-78
2022/09/15 10:51:37;;;;;;;7.00;1.77;;;;;;;;;;4981160;28;20113;-78
2022/09/15 10:54:06;;;;;;;5.88;1.70;;;;;;;;;;4982547;28;20035;-78
2022/09/15 10:56:35;;;;;;;6.40;1.83;;;;;;;;;;4979298;28;20030;-78
2022/09/15 10:59:21;;;;;;;6.78;1.50;;;;;;;;;;4977218;28;20034;-77
2022/09/15 11:01:57;;;;;;;9.32;1.70;;;;;;;;;;4980687;28;20066;-77
2022/09/15 11:04:25;;;;;;;8.70;1.45;;;;;;;;;;4986473;28;20031;-77
2022/09/15 11:07:02;;;;;;;4.95;1.33;;;;;;;;;;4983147;28;20060;-77
2022/09/15 11:09:34;;;;;;;6.20;1.33;;;;;;;;;;4982950;28;20124;-78
2022/09/15 11:12:23;;;;;;;4.72;1.15;;;;;;;;;;4983692;28;20054;-77
2022/09/15 11:15:06;;;;;;;9.43;1.73;;;;;;;;;;4982962;28;20408;-78
2022/09/15 11:17:35;;;;;;;7.43;1.23;;;;;;;;;;4984441;28;20096;-77
2022/09/15 11:20:20;;;;;;;6.57;1.42;;;;;;;;;;4981738;28;20839;-78
2022/09/15 11:22:52;;;;;;;5.28;1.35;;;;;;;;;;4981310;28;20034;-78
2022/09/15 11:25:20;;;;;;;5.28;1.05;;;;;;;;;;4980363;28;20038;-77
2022/09/15 11:27:59;;;;;;;3.67;1.08;;;;;;;;;;4983706;28;20543;-77
2022/09/15 11:30:31;;;;;;;3.90;1.30;;;;;;;;;;4987761;28;20066;-78
2022/09/15 11:33:03;;;;;;;6.85;1.30;;;;;;;;;;4983668;28;20034;-78
2022/09/15 11:35:29;;;;;;;;;;;;;;;;;;4985483;28;20058;-78
2022/09/15 11:37:59;;;;;;;5.47;1.30;;;;;;;;;;4985234;28;19917;-77
2022/09/15 11:40:32;;;;;;;7.40;1.58;;;;;;;;;;4981328;28;20030;-78
2022/09/15 11:43:17;;;;;;;5.85;1.90;;;;;;;;;;4984656;28;20038;-78
2022/09/15 11:45:49;;;;;;;6.68;2.72;;;;;;;;;;4980547;28;20039;-78
2022/09/15 11:48:17;;;;;;;7.75;2.00;;;;;;;;;;4986269;28;20480;-77
2022/09/15 11:50:45;;;;;;;6.22;1.65;;;;;;;;;;4983483;28;20843;-77
2022/09/15 11:53:16;;;;;;;5.07;1.60;;;;;;;;;;4987523;28;20038;-78
2022/09/15 11:55:49;;;;;;;6.10;1.75;;;;;;;;;;4987012;28;20027;-78
2022/09/15 11:58:28;;;;;;;4.95;1.48;;;;;;;;;;4977732;28;20522;-77
2022/09/15 12:01:10;;;;;;;6.47;1.73;;;;;;;;;;4987067;28;20029;-78
2022/09/15 12:03:39;;;;;;;8.02;1.20;;;;;;;;;;4987493;28;20423;-78
2022/09/15 12:06:18;;;;;;;4.40;1.65;;;;;;;;;;4985671;28;20074;-78
2022/09/15 12:08:49;;;;;;;6.82;1.33;;;;;;;;;;4982202;28;20035;-78
2022/09/15 12:11:23;;;;;;;2.40;0.73;;;;;;;;;;4979870;28;20035;-77
2022/09/15 12:13:49;;;;;;;5.60;1.35;;;;;;;;;;4984694;28;20058;-78
2022/09/15 12:16:16;;;;;;;6.15;1.33;;;;;;;;;;4977611;28;20109;-77
2022/09/15 12:18:47;;;;;;;5.25;1.55;;;;;;;;;;4976602;28;20109;-78
2022/09/15 12:21:13;;;;;;;4.40;1.25;;;;;;;;;;4983075;28;20039;-78
2022/09/15 12:23:39;;;;;;;4.95;1.00;;;;;;;;;;4985910;28;20038;-78
2022/09/15 12:26:14;;;;;;;5.32;1.20;;;;;;;;;;4979928;28;20387;-78
2022/09/15 12:28:49;;;;;;;2.97;0.90;;;;;;;;;;4982681;28;20040;-78
2022/09/15 12:31:33;;;;;;;5.03;1.35;;;;;;;;;;4984692;28;20560;-78
2022/09/15 12:34:01;;;;;;;3.80;1.10;;;;;;;;;;4980983;28;20038;-78
2022/09/15 12:36:33;;;;;;;5.50;1.30;;;;;;;;;;4981139;28;20030;-78
2022/09/15 12:39:00;;;;;;;6.40;1.98;;;;;;;;;;4984653;28;20046;-78
2022/09/15 12:41:26;;;;;;;3.80;1.20;;;;;;;;;;4981986;28;20038;-78
2022/09/15 12:43:56;;;;;;;8.52;1.38;;;;;;;;;;4983995;28;20092;-78
2022/09/15 12:46:22;;;;;;;4.68;1.30;;;;;;;;;;4980090;28;20138;-78
2022/09/15 12:48:49;;;;;;;8.70;2.00;;;;;;;;;;4981334;28;20217;-78
2022/09/15 12:51:24;;;;;;;5.53;1.33;;;;;;;;;;4985215;28;20069;-78
2022/09/15 12:53:57;;;;;;;7.68;1.88;;;;;;;;;;4979827;28;20037;-78
2022/09/15 12:56:27;;;;;;;7.93;1.60;;;;;;;;;;4979434;28;20053;-78
2022/09/15 12:58:54;;;;;;;6.60;1.73;;;;;;;;;;4983501;28;20030;-78
2022/09/15 13:01:23;;;;;;;5.90;1.17;;;;;;;;;;4983102;28;20081;-78
2022/09/15 13:03:49;;;;;;;5.85;1.30;;;;;;;;;;4981220;28;20886;-78
2022/09/15 13:06:19;;;;;;;5.38;1.33;;;;;;;;;;4981265;28;20061;-78
2022/09/15 13:08:51;;;;;;;6.10;1.52;;;;;;;;;;4986294;28;20097;-78
2022/09/15 13:11:17;;;;;;;5.80;1.77;;;;;;;;;;4985061;28;20065;-78
2022/09/15 13:13:57;;;;;;;8.25;1.90;;;;;;;;;;4984533;28;20069;-78
2022/09/15 13:16:44;;;;;;;7.75;2.08;;;;;;;;;;4978799;28;20050;-77
2022/09/15 13:19:11;;;;;;;7.00;1.65;;;;;;;;;;4981324;28;20030;-78
2022/09/15 13:21:39;;;;;;;4.63;1.60;;;;;;;;;;4982850;28;20036;-78
2022/09/15 13:24:06;;;;;;;7.60;2.15;;;;;;;;;;4983497;28;20049;-78
2022/09/15 13:26:33;;;;;;;5.40;1.50;;;;;;;;;;4984346;28;20046;-78
2022/09/15 13:29:00;;;;;;;7.78;1.95;;;;;;;;;;4982541;28;20038;-78
2022/09/15 13:31:39;;;;;;;7.75;2.22;;;;;;;;;;4985171;28;20041;-78
2022/09/15 13:34:22;;;;;;;5.85;1.85;;;;;;;;;;4980290;28;20054;-78
2022/09/15 13:36:58;;;;;;;5.20;1.75;;;;;;;;;;4972878;28;20117;-78
2022/09/15 13:39:42;;;;;;;7.20;1.90;;;;;;;;;;4978266;28;20030;-78
2022/09/15 13:42:27;;;;;;;9.70;2.33;;;;;;;;;;4985271;28;20081;-77
2022/09/15 13:45:11;;;;;;;7.88;2.72;;;;;;;;;;4984381;28;20118;-78
2022/09/15 13:47:52;;;;;;;7.22;2.10;;;;;;;;;;4981668;28;20487;-78
2022/09/15 13:50:24;;;;;;;6.93;1.90;;;;;;;;;;4979890;28;20150;-78
2022/09/15 13:53:05;;;;;;;6.43;1.70;;;;;;;;;;4980567;28;20927;-78
2022/09/15 13:55:33;;;;;;;6.10;1.50;;;;;;;;;;4981428;28;20563;-78
2022/09/15 13:58:01;;;;;;;9.75;2.95;;;;;;;;;;4981317;28;20492;-78
2022/09/15 14:00:32;;;;;;;9.18;2.92;;;;;;;;;;4980798;28;20041;-79
2022/09/15 14:02:59;;;;;;;9.50;2.67;;;;;;;;;;4981934;28;20041;-78
2022/09/15 14:05:27;;;;;;;7.28;2.03;;;;;;;;;;4983850;28;20045;-78
2022/09/15 14:08:00;;;;;;;9.88;2.50;;;;;;;;;;4983971;28;20511;-78
2022/09/15 14:10:27;;;;;;;12.20;2.58;;;;;;;;;;4976013;28;20360;-78
2022/09/15 14:12:57;;;;;;;9.52;2.47;;;;;;;;;;4985352;28;20070;-78
2022/09/15 14:15:24;;;;;;;7.85;3.00;;;;;;;;;;4981074;28;20114;-78
2022/09/15 14:17:50;;;;;;;6.80;2.08;;;;;;;;;;4985511;28;20041;-78
2022/09/15 14:20:23;;;;;;;8.10;1.73;;;;;;;;;;4981627;28;20034;-78
2022/09/15 14:22:52;;;;;;;6.25;1.90;;;;;;;;;;4982139;28;20476;-78
2022/09/15 14:25:19;;;;;;;13.85;3.28;;;;;;;;;;4979381;28;20074;-78
2022/09/15 14:27:46;;;;;;;10.55;3.20;;;;;;;;;;4987152;28;20030;-78
2022/09/15 14:30:18;;;;;;;7.88;3.28;;;;;;;;;;4979000;28;20051;-78
2022/09/15 14:32:45;;;;;;;7.32;2.63;;;;;;;;;;4984128;28;20030;-78
2022/09/15 14:35:16;;;;;;;8.65;2.30;;;;;;;;;;4984418;28;20113;-78
2022/09/15 14:37:46;;;;;;;6.43;1.80;;;;;;;;;;4983329;28;20026;-78
2022/09/15 14:40:24;;;;;;;6.30;1.92;;;;;;;;;;4987519;28;20038;-78
2022/09/15 14:42:50;;;;;;;10.13;4.30;;;;;;;;;;4983542;28;20077;-78
2022/09/15 14:45:17;;;;;;;7.35;2.50;;;;;;;;;;4981478;28;20053;-78
2022/09/15 14:47:44;;;;;;;10.05;2.45;;;;;;;;;;4982451;28;20077;-78
2022/09/15 14:50:14;;;;;;;7.13;2.47;;;;;;;;;;4991531;28;20133;-78
2022/09/15 14:52:42;;;;;;;6.38;1.98;;;;;;;;;;4985072;28;20138;-78
2022/09/15 14:55:14;;;;;;;4.90;1.33;;;;;;;;;;4986702;28;20030;-78